N926 ULMM-ULAA
Flight info
| Callsign | N926 |
|---|---|
| Flight time | 1h 28m |
| Altitude | 20000 |
| Route | DCT |
| Aircraft | PC12/L-VGDW/C |
Departure
| Time | 2026-04-26 16:21 |
|---|---|
| Airport | Emperor Nicholas II Murmansk Airport (ULMM) |
Arrival
| Time | 2026-04-26 17:49 |
|---|---|
| Airport | Talagi Airport (ULAA) |
| Time | Latitude | Longitude | Altitude | Speed | Heading |
|---|---|---|---|---|---|
| 2026-04-26 16:00 | 68.78470 | 32.75711 | 258 ft | 0 kts | 321° |
| 2026-04-26 16:15 | 68.78476 | 32.75687 | 258 ft | 4 kts | 282° |
| 2026-04-26 16:15 | 68.78460 | 32.75630 | 258 ft | 8 kts | 207° |
| 2026-04-26 16:16 | 68.78341 | 32.75263 | 258 ft | 17 kts | 237° |
| 2026-04-26 16:16 | 68.78288 | 32.75067 | 260 ft | 5 kts | 202° |
| 2026-04-26 16:16 | 68.78245 | 32.75145 | 260 ft | 11 kts | 145° |
| 2026-04-26 16:16 | 68.78195 | 32.75239 | 260 ft | 15 kts | 143° |
| 2026-04-26 16:17 | 68.78094 | 32.75410 | 261 ft | 19 kts | 149° |
| 2026-04-26 16:17 | 68.77972 | 32.75608 | 263 ft | 21 kts | 149° |
| 2026-04-26 16:17 | 68.77837 | 32.75834 | 263 ft | 24 kts | 147° |
| 2026-04-26 16:17 | 68.77690 | 32.76098 | 264 ft | 26 kts | 146° |
| 2026-04-26 16:18 | 68.77541 | 32.76382 | 268 ft | 26 kts | 146° |
| 2026-04-26 16:18 | 68.77436 | 32.76788 | 270 ft | 15 kts | 85° |
| 2026-04-26 16:19 | 68.77347 | 32.77247 | 272 ft | 14 kts | 185° |
| 2026-04-26 16:19 | 68.77278 | 32.77013 | 271 ft | 18 kts | 244° |
| 2026-04-26 16:19 | 68.77322 | 32.76775 | 269 ft | 8 kts | 325° |
| 2026-04-26 16:20 | 68.77505 | 32.76433 | 268 ft | 51 kts | 326° |
| 2026-04-26 16:20 | 68.78347 | 32.74925 | 283 ft | 108 kts | 329° |
| 2026-04-26 16:20 | 68.79008 | 32.73909 | 475 ft | 110 kts | 333° |
| 2026-04-26 16:21 | 68.79709 | 32.72939 | 749 ft | 116 kts | 334° |
| 2026-04-26 16:21 | 68.80426 | 32.71854 | 1064 ft | 119 kts | 320° |
| 2026-04-26 16:21 | 68.80866 | 32.69986 | 1435 ft | 118 kts | 285° |
| 2026-04-26 16:21 | 68.80714 | 32.67707 | 1700 ft | 131 kts | 237° |
| 2026-04-26 16:22 | 68.80003 | 32.65927 | 1839 ft | 150 kts | 223° |
| 2026-04-26 16:22 | 68.79266 | 32.63999 | 2217 ft | 146 kts | 226° |
| 2026-04-26 16:22 | 68.78415 | 32.62255 | 2496 ft | 159 kts | 216° |
| 2026-04-26 16:22 | 68.77458 | 32.60616 | 2811 ft | 169 kts | 214° |
| 2026-04-26 16:23 | 68.76402 | 32.58885 | 2953 ft | 188 kts | 214° |
| 2026-04-26 16:23 | 68.75260 | 32.56967 | 3216 ft | 194 kts | 214° |
| 2026-04-26 16:23 | 68.74103 | 32.55034 | 3584 ft | 194 kts | 212° |
| 2026-04-26 16:23 | 68.72884 | 32.53427 | 3957 ft | 194 kts | 207° |
| 2026-04-26 16:24 | 68.71648 | 32.51952 | 4329 ft | 193 kts | 206° |
| 2026-04-26 16:24 | 68.70410 | 32.50486 | 4704 ft | 194 kts | 206° |
| 2026-04-26 16:24 | 68.69168 | 32.49025 | 5081 ft | 195 kts | 206° |
| 2026-04-26 16:24 | 68.67938 | 32.47576 | 5450 ft | 196 kts | 206° |
| 2026-04-26 16:25 | 68.66693 | 32.46120 | 5821 ft | 194 kts | 206° |
| 2026-04-26 16:25 | 68.65447 | 32.44678 | 6195 ft | 194 kts | 206° |
| 2026-04-26 16:25 | 68.64206 | 32.43255 | 6568 ft | 193 kts | 206° |
| 2026-04-26 16:25 | 68.62966 | 32.41837 | 6943 ft | 193 kts | 206° |
| 2026-04-26 16:26 | 68.61723 | 32.40419 | 7318 ft | 194 kts | 206° |
| 2026-04-26 16:26 | 68.60466 | 32.38988 | 7694 ft | 198 kts | 206° |
| 2026-04-26 16:26 | 68.59184 | 32.37538 | 8070 ft | 201 kts | 206° |
| 2026-04-26 16:26 | 68.57900 | 32.36082 | 8441 ft | 204 kts | 206° |
| 2026-04-26 16:27 | 68.56584 | 32.34591 | 8816 ft | 206 kts | 206° |
| 2026-04-26 16:27 | 68.55257 | 32.33089 | 9189 ft | 207 kts | 206° |
| 2026-04-26 16:27 | 68.53926 | 32.31578 | 9566 ft | 208 kts | 206° |
| 2026-04-26 16:27 | 68.52585 | 32.30063 | 9936 ft | 209 kts | 206° |
| 2026-04-26 16:28 | 68.51243 | 32.28538 | 10310 ft | 209 kts | 206° |
| 2026-04-26 16:28 | 68.49891 | 32.27064 | 10688 ft | 209 kts | 199° |
| 2026-04-26 16:28 | 68.48444 | 32.27251 | 11064 ft | 213 kts | 160° |
| 2026-04-26 16:28 | 68.47127 | 32.28971 | 11440 ft | 213 kts | 152° |
| 2026-04-26 16:29 | 68.45818 | 32.30882 | 11816 ft | 214 kts | 152° |
| 2026-04-26 16:29 | 68.44504 | 32.32811 | 12190 ft | 215 kts | 152° |
| 2026-04-26 16:29 | 68.43188 | 32.34750 | 12564 ft | 215 kts | 152° |
| 2026-04-26 16:29 | 68.41873 | 32.36691 | 12937 ft | 215 kts | 152° |
| 2026-04-26 16:30 | 68.40560 | 32.38630 | 13316 ft | 215 kts | 152° |
| 2026-04-26 16:30 | 68.39242 | 32.40571 | 13688 ft | 215 kts | 152° |
| 2026-04-26 16:30 | 68.37944 | 32.42480 | 14056 ft | 215 kts | 152° |
| 2026-04-26 16:30 | 68.36626 | 32.44412 | 14431 ft | 215 kts | 152° |
| 2026-04-26 16:31 | 68.35308 | 32.46344 | 14805 ft | 215 kts | 152° |
| 2026-04-26 16:31 | 68.33990 | 32.48274 | 15175 ft | 215 kts | 152° |
| 2026-04-26 16:31 | 68.32674 | 32.50198 | 15555 ft | 215 kts | 152° |
| 2026-04-26 16:31 | 68.31360 | 32.52111 | 15929 ft | 215 kts | 152° |
| 2026-04-26 16:32 | 68.30046 | 32.54022 | 16303 ft | 214 kts | 152° |
| 2026-04-26 16:32 | 68.28751 | 32.55906 | 16673 ft | 214 kts | 152° |
| 2026-04-26 16:32 | 68.27440 | 32.57811 | 17047 ft | 214 kts | 152° |
| 2026-04-26 16:32 | 68.26130 | 32.59712 | 17422 ft | 214 kts | 152° |
| 2026-04-26 16:33 | 68.24821 | 32.61607 | 17796 ft | 214 kts | 152° |
| 2026-04-26 16:33 | 68.23511 | 32.63501 | 18170 ft | 213 kts | 152° |
| 2026-04-26 16:33 | 68.22204 | 32.65392 | 18544 ft | 213 kts | 152° |
| 2026-04-26 16:33 | 68.20897 | 32.67280 | 18918 ft | 213 kts | 152° |
| 2026-04-26 16:34 | 68.19597 | 32.69164 | 19292 ft | 212 kts | 152° |
| 2026-04-26 16:34 | 68.18315 | 32.71022 | 19661 ft | 212 kts | 152° |
| 2026-04-26 16:34 | 68.16982 | 32.72953 | 19775 ft | 226 kts | 152° |
| 2026-04-26 16:34 | 68.15555 | 32.75006 | 19781 ft | 239 kts | 152° |
| 2026-04-26 16:35 | 68.14105 | 32.77371 | 19784 ft | 248 kts | 143° |
| 2026-04-26 16:35 | 68.12758 | 32.80370 | 19787 ft | 255 kts | 139° |
| 2026-04-26 16:35 | 68.11411 | 32.83545 | 19789 ft | 261 kts | 138° |
| 2026-04-26 16:35 | 68.10042 | 32.86793 | 19788 ft | 265 kts | 138° |
| 2026-04-26 16:36 | 68.08656 | 32.90080 | 19789 ft | 268 kts | 138° |
| 2026-04-26 16:36 | 68.07273 | 32.93354 | 19788 ft | 270 kts | 138° |
| 2026-04-26 16:36 | 68.05861 | 32.96689 | 19789 ft | 271 kts | 138° |
| 2026-04-26 16:36 | 68.04442 | 33.00040 | 19789 ft | 272 kts | 138° |
| 2026-04-26 16:37 | 68.03023 | 33.03395 | 19787 ft | 273 kts | 138° |
| 2026-04-26 16:37 | 68.01600 | 33.06756 | 19788 ft | 273 kts | 138° |
| 2026-04-26 16:37 | 68.00177 | 33.10115 | 19788 ft | 273 kts | 138° |
| 2026-04-26 16:37 | 67.98753 | 33.13477 | 19787 ft | 274 kts | 138° |
| 2026-04-26 16:38 | 67.97359 | 33.16813 | 19787 ft | 273 kts | 139° |
| 2026-04-26 16:38 | 67.95955 | 33.20219 | 19787 ft | 273 kts | 138° |
| 2026-04-26 16:38 | 67.94566 | 33.23685 | 19787 ft | 273 kts | 135° |
| 2026-04-26 16:38 | 67.93299 | 33.27443 | 19787 ft | 273 kts | 131° |
| 2026-04-26 16:39 | 67.92041 | 33.31219 | 19788 ft | 273 kts | 133° |
| 2026-04-26 16:39 | 67.90754 | 33.34938 | 19788 ft | 274 kts | 133° |
| 2026-04-26 16:39 | 67.89462 | 33.38644 | 19788 ft | 273 kts | 133° |
| 2026-04-26 16:39 | 67.88167 | 33.42349 | 19788 ft | 274 kts | 133° |
| 2026-04-26 16:40 | 67.86888 | 33.46003 | 19788 ft | 274 kts | 133° |
| 2026-04-26 16:40 | 67.85592 | 33.49700 | 19789 ft | 274 kts | 133° |
| 2026-04-26 16:40 | 67.84258 | 33.53290 | 19788 ft | 273 kts | 139° |
| 2026-04-26 16:40 | 67.82794 | 33.56497 | 19785 ft | 273 kts | 142° |
| 2026-04-26 16:41 | 67.81295 | 33.59584 | 19786 ft | 273 kts | 143° |
| 2026-04-26 16:41 | 67.79790 | 33.62649 | 19779 ft | 274 kts | 143° |
| 2026-04-26 16:41 | 67.78278 | 33.65717 | 19779 ft | 274 kts | 143° |
| 2026-04-26 16:41 | 67.76766 | 33.68777 | 19779 ft | 274 kts | 143° |
| 2026-04-26 16:42 | 67.75272 | 33.71799 | 19777 ft | 274 kts | 143° |
| 2026-04-26 16:42 | 67.73759 | 33.74854 | 19777 ft | 274 kts | 143° |
| 2026-04-26 16:42 | 67.72247 | 33.77902 | 19777 ft | 274 kts | 143° |
| 2026-04-26 16:42 | 67.70737 | 33.80947 | 19779 ft | 274 kts | 143° |
| 2026-04-26 16:43 | 67.69222 | 33.83995 | 19779 ft | 274 kts | 143° |
| 2026-04-26 16:43 | 67.67709 | 33.87033 | 19779 ft | 274 kts | 143° |
| 2026-04-26 16:43 | 67.66193 | 33.90072 | 19777 ft | 274 kts | 143° |
| 2026-04-26 16:43 | 67.64700 | 33.93062 | 19777 ft | 274 kts | 143° |
| 2026-04-26 16:44 | 67.63186 | 33.96095 | 19776 ft | 274 kts | 143° |
| 2026-04-26 16:44 | 67.61672 | 33.99130 | 19777 ft | 274 kts | 143° |
| 2026-04-26 16:44 | 67.60158 | 34.02164 | 19776 ft | 274 kts | 143° |
| 2026-04-26 16:44 | 67.58648 | 34.05198 | 19777 ft | 273 kts | 143° |
| 2026-04-26 16:45 | 67.57143 | 34.08230 | 19777 ft | 273 kts | 143° |
| 2026-04-26 16:45 | 67.55637 | 34.11265 | 19777 ft | 273 kts | 143° |
| 2026-04-26 16:45 | 67.54154 | 34.14260 | 19777 ft | 273 kts | 143° |
| 2026-04-26 16:45 | 67.52654 | 34.17295 | 19777 ft | 273 kts | 143° |
| 2026-04-26 16:46 | 67.51153 | 34.20331 | 19777 ft | 273 kts | 143° |
| 2026-04-26 16:46 | 67.49655 | 34.23366 | 19777 ft | 273 kts | 143° |
| 2026-04-26 16:46 | 67.48157 | 34.26406 | 19778 ft | 273 kts | 143° |
| 2026-04-26 16:46 | 67.46661 | 34.29447 | 19777 ft | 273 kts | 143° |
| 2026-04-26 16:47 | 67.45165 | 34.32498 | 19778 ft | 273 kts | 143° |
| 2026-04-26 16:47 | 67.43671 | 34.35555 | 19777 ft | 273 kts | 143° |
| 2026-04-26 16:47 | 67.42200 | 34.38571 | 19777 ft | 273 kts | 143° |
| 2026-04-26 16:47 | 67.40711 | 34.41630 | 19777 ft | 273 kts | 143° |
| 2026-04-26 16:48 | 67.39222 | 34.44701 | 19777 ft | 273 kts | 143° |
| 2026-04-26 16:48 | 67.37737 | 34.47772 | 19777 ft | 273 kts | 143° |
| 2026-04-26 16:48 | 67.36254 | 34.50843 | 19777 ft | 273 kts | 143° |
| 2026-04-26 16:48 | 67.34773 | 34.53921 | 19763 ft | 273 kts | 143° |
| 2026-04-26 16:49 | 67.33292 | 34.56999 | 19762 ft | 273 kts | 143° |
| 2026-04-26 16:49 | 67.31815 | 34.60072 | 19762 ft | 272 kts | 143° |
| 2026-04-26 16:49 | 67.30359 | 34.63111 | 19763 ft | 272 kts | 143° |
| 2026-04-26 16:49 | 67.28885 | 34.66196 | 19763 ft | 273 kts | 143° |
| 2026-04-26 16:50 | 67.27414 | 34.69286 | 19747 ft | 273 kts | 143° |
| 2026-04-26 16:50 | 67.25945 | 34.72381 | 19753 ft | 273 kts | 143° |
| 2026-04-26 16:50 | 67.24476 | 34.75480 | 19753 ft | 272 kts | 143° |
| 2026-04-26 16:50 | 67.23009 | 34.78576 | 19747 ft | 272 kts | 143° |
| 2026-04-26 16:51 | 67.21543 | 34.81671 | 19751 ft | 272 kts | 143° |
| 2026-04-26 16:51 | 67.20079 | 34.84765 | 19748 ft | 272 kts | 143° |
| 2026-04-26 16:51 | 67.18618 | 34.87867 | 19744 ft | 272 kts | 143° |
| 2026-04-26 16:51 | 67.17178 | 34.90932 | 19750 ft | 272 kts | 143° |
| 2026-04-26 16:52 | 67.15719 | 34.94039 | 19750 ft | 272 kts | 143° |
| 2026-04-26 16:52 | 67.14755 | 34.96100 | 19753 ft | 272 kts | 143° |
| 2026-04-26 16:52 | 67.12808 | 35.00268 | 19753 ft | 272 kts | 143° |
| 2026-04-26 16:52 | 67.11353 | 35.03383 | 19750 ft | 272 kts | 143° |
| 2026-04-26 16:53 | 67.09899 | 35.06498 | 19747 ft | 272 kts | 143° |
| 2026-04-26 16:53 | 67.08445 | 35.09613 | 19753 ft | 272 kts | 143° |
| 2026-04-26 16:53 | 67.07009 | 35.12699 | 19744 ft | 273 kts | 143° |
| 2026-04-26 16:53 | 67.05557 | 35.15826 | 19744 ft | 273 kts | 143° |
| 2026-04-26 16:54 | 67.04105 | 35.18953 | 19741 ft | 272 kts | 143° |
| 2026-04-26 16:54 | 67.02656 | 35.22073 | 19738 ft | 272 kts | 143° |
| 2026-04-26 16:54 | 67.01208 | 35.25202 | 19741 ft | 272 kts | 143° |
| 2026-04-26 16:54 | 66.99825 | 35.28521 | 19740 ft | 273 kts | 139° |
| 2026-04-26 16:55 | 66.98477 | 35.31946 | 19740 ft | 273 kts | 139° |
| 2026-04-26 16:55 | 66.97136 | 35.35388 | 19742 ft | 273 kts | 139° |
| 2026-04-26 16:55 | 66.95815 | 35.38787 | 19740 ft | 273 kts | 139° |
| 2026-04-26 16:55 | 66.94477 | 35.42239 | 19741 ft | 274 kts | 139° |
| 2026-04-26 16:56 | 66.91802 | 35.49149 | 19743 ft | 274 kts | 139° |
| 2026-04-26 16:56 | 66.90467 | 35.52608 | 19743 ft | 274 kts | 139° |
| 2026-04-26 16:56 | 66.89131 | 35.56074 | 19732 ft | 274 kts | 139° |
| 2026-04-26 16:57 | 66.87797 | 35.59536 | 19733 ft | 274 kts | 139° |
| 2026-04-26 16:57 | 66.86464 | 35.63004 | 19732 ft | 274 kts | 139° |
| 2026-04-26 16:57 | 66.83826 | 35.69920 | 19731 ft | 275 kts | 139° |
| 2026-04-26 16:58 | 66.82502 | 35.73413 | 19730 ft | 275 kts | 139° |
| 2026-04-26 16:58 | 66.81624 | 35.75729 | 19732 ft | 275 kts | 139° |
| 2026-04-26 16:58 | 66.78536 | 35.83922 | 19729 ft | 275 kts | 139° |
| 2026-04-26 16:59 | 66.77219 | 35.87427 | 19730 ft | 275 kts | 139° |
| 2026-04-26 16:59 | 66.74509 | 35.94109 | 19732 ft | 273 kts | 143° |
| 2026-04-26 17:00 | 66.71690 | 36.00549 | 19732 ft | 273 kts | 144° |
| 2026-04-26 17:00 | 66.68873 | 36.07012 | 19722 ft | 274 kts | 144° |
| 2026-04-26 17:00 | 66.67472 | 36.10268 | 19722 ft | 274 kts | 144° |
| 2026-04-26 17:01 | 66.66072 | 36.13523 | 19722 ft | 274 kts | 144° |
| 2026-04-26 17:01 | 66.64689 | 36.16734 | 19722 ft | 274 kts | 144° |
| 2026-04-26 17:01 | 66.63292 | 36.19986 | 19722 ft | 274 kts | 144° |
| 2026-04-26 17:01 | 66.61897 | 36.23248 | 19722 ft | 274 kts | 144° |
| 2026-04-26 17:02 | 66.60501 | 36.26510 | 19722 ft | 274 kts | 144° |
| 2026-04-26 17:02 | 66.59106 | 36.29768 | 19722 ft | 274 kts | 144° |
| 2026-04-26 17:02 | 66.57710 | 36.33025 | 19722 ft | 274 kts | 144° |
| 2026-04-26 17:02 | 66.56313 | 36.36283 | 19722 ft | 274 kts | 144° |
| 2026-04-26 17:03 | 66.54918 | 36.39535 | 19722 ft | 274 kts | 144° |
| 2026-04-26 17:03 | 66.53541 | 36.42741 | 19722 ft | 274 kts | 144° |
| 2026-04-26 17:03 | 66.52144 | 36.45993 | 19722 ft | 274 kts | 144° |
| 2026-04-26 17:03 | 66.50747 | 36.49241 | 19718 ft | 274 kts | 144° |
| 2026-04-26 17:04 | 66.49349 | 36.52490 | 19713 ft | 274 kts | 144° |
| 2026-04-26 17:04 | 66.47949 | 36.55739 | 19713 ft | 274 kts | 144° |
| 2026-04-26 17:04 | 66.46550 | 36.58989 | 19713 ft | 274 kts | 144° |
| 2026-04-26 17:04 | 66.45153 | 36.62244 | 19713 ft | 274 kts | 144° |
| 2026-04-26 17:05 | 66.43776 | 36.65456 | 19714 ft | 274 kts | 144° |
| 2026-04-26 17:05 | 66.42380 | 36.68709 | 19712 ft | 274 kts | 144° |
| 2026-04-26 17:05 | 66.40984 | 36.71959 | 19713 ft | 274 kts | 144° |
| 2026-04-26 17:05 | 66.39590 | 36.75205 | 19711 ft | 274 kts | 144° |
| 2026-04-26 17:06 | 66.38195 | 36.78448 | 19713 ft | 274 kts | 144° |
| 2026-04-26 17:06 | 66.36800 | 36.81693 | 19713 ft | 274 kts | 144° |
| 2026-04-26 17:06 | 66.35404 | 36.84937 | 19713 ft | 274 kts | 144° |
| 2026-04-26 17:06 | 66.34007 | 36.88179 | 19714 ft | 275 kts | 144° |
| 2026-04-26 17:07 | 66.32628 | 36.91378 | 19713 ft | 275 kts | 144° |
| 2026-04-26 17:07 | 66.31232 | 36.94625 | 19713 ft | 275 kts | 144° |
| 2026-04-26 17:07 | 66.29837 | 36.97875 | 19713 ft | 275 kts | 144° |
| 2026-04-26 17:07 | 66.28443 | 37.01122 | 19713 ft | 275 kts | 144° |
| 2026-04-26 17:08 | 66.27050 | 37.04366 | 19713 ft | 275 kts | 144° |
| 2026-04-26 17:08 | 66.25661 | 37.07615 | 19712 ft | 275 kts | 144° |
| 2026-04-26 17:08 | 66.24271 | 37.10873 | 19705 ft | 275 kts | 144° |
| 2026-04-26 17:08 | 66.22881 | 37.14128 | 19705 ft | 275 kts | 144° |
| 2026-04-26 17:09 | 66.21513 | 37.17336 | 19705 ft | 275 kts | 144° |
| 2026-04-26 17:09 | 66.20576 | 37.19542 | 19705 ft | 275 kts | 144° |
| 2026-04-26 17:09 | 66.18745 | 37.23858 | 19705 ft | 274 kts | 144° |
| 2026-04-26 17:09 | 66.17366 | 37.27121 | 19705 ft | 274 kts | 144° |
| 2026-04-26 17:10 | 66.15988 | 37.30387 | 19705 ft | 274 kts | 144° |
| 2026-04-26 17:10 | 66.14612 | 37.33654 | 19706 ft | 274 kts | 144° |
| 2026-04-26 17:10 | 66.13238 | 37.36927 | 19705 ft | 274 kts | 144° |
| 2026-04-26 17:10 | 66.11866 | 37.40203 | 19705 ft | 275 kts | 144° |
| 2026-04-26 17:11 | 66.10496 | 37.43486 | 19705 ft | 275 kts | 144° |
| 2026-04-26 17:11 | 66.09147 | 37.46726 | 19705 ft | 275 kts | 144° |
| 2026-04-26 17:11 | 66.07782 | 37.50018 | 19705 ft | 275 kts | 144° |
| 2026-04-26 17:11 | 66.06417 | 37.53318 | 19705 ft | 275 kts | 144° |
| 2026-04-26 17:12 | 66.03697 | 37.59923 | 19705 ft | 275 kts | 144° |
| 2026-04-26 17:12 | 66.02339 | 37.63229 | 19705 ft | 275 kts | 144° |
| 2026-04-26 17:13 | 65.99630 | 37.69852 | 19705 ft | 275 kts | 144° |
| 2026-04-26 17:13 | 65.98279 | 37.73168 | 19706 ft | 275 kts | 144° |
| 2026-04-26 17:13 | 65.95606 | 37.79763 | 19705 ft | 274 kts | 144° |
| 2026-04-26 17:14 | 65.94260 | 37.83078 | 19705 ft | 274 kts | 144° |
| 2026-04-26 17:14 | 65.91572 | 37.89719 | 19705 ft | 274 kts | 144° |
| 2026-04-26 17:14 | 65.90229 | 37.93042 | 19705 ft | 275 kts | 144° |
| 2026-04-26 17:15 | 65.87544 | 37.99681 | 19705 ft | 274 kts | 144° |
| 2026-04-26 17:15 | 65.86200 | 38.02999 | 19705 ft | 275 kts | 144° |
| 2026-04-26 17:15 | 65.84875 | 38.06271 | 19705 ft | 274 kts | 144° |
| 2026-04-26 17:16 | 65.83531 | 38.09585 | 19705 ft | 275 kts | 144° |
| 2026-04-26 17:16 | 65.82186 | 38.12899 | 19705 ft | 275 kts | 144° |
| 2026-04-26 17:16 | 65.80838 | 38.16206 | 19705 ft | 275 kts | 144° |
| 2026-04-26 17:16 | 65.79493 | 38.19502 | 19706 ft | 274 kts | 144° |
| 2026-04-26 17:17 | 65.78147 | 38.22796 | 19705 ft | 274 kts | 144° |
| 2026-04-26 17:17 | 65.76801 | 38.26088 | 19705 ft | 274 kts | 144° |
| 2026-04-26 17:17 | 65.75455 | 38.29369 | 19705 ft | 274 kts | 144° |
| 2026-04-26 17:17 | 65.74108 | 38.32640 | 19705 ft | 274 kts | 144° |
| 2026-04-26 17:18 | 65.72780 | 38.35863 | 19705 ft | 273 kts | 144° |
| 2026-04-26 17:18 | 65.71436 | 38.39121 | 19705 ft | 273 kts | 144° |
| 2026-04-26 17:18 | 65.70020 | 38.42074 | 19703 ft | 265 kts | 153° |
| 2026-04-26 17:18 | 65.68513 | 38.44615 | 19703 ft | 263 kts | 155° |
| 2026-04-26 17:19 | 65.65452 | 38.49499 | 19694 ft | 263 kts | 156° |
| 2026-04-26 17:19 | 65.63921 | 38.51920 | 19694 ft | 263 kts | 156° |
| 2026-04-26 17:19 | 65.62410 | 38.54305 | 19694 ft | 262 kts | 156° |
| 2026-04-26 17:20 | 65.60879 | 38.56708 | 19694 ft | 262 kts | 156° |
| 2026-04-26 17:20 | 65.59846 | 38.58327 | 19694 ft | 262 kts | 156° |
| 2026-04-26 17:20 | 65.57817 | 38.61497 | 19694 ft | 262 kts | 156° |
| 2026-04-26 17:20 | 65.56276 | 38.63887 | 19543 ft | 266 kts | 156° |
| 2026-04-26 17:21 | 65.54700 | 38.66307 | 19293 ft | 270 kts | 156° |
| 2026-04-26 17:21 | 65.53104 | 38.68737 | 19038 ft | 272 kts | 156° |
| 2026-04-26 17:21 | 65.51495 | 38.71154 | 18794 ft | 273 kts | 156° |
| 2026-04-26 17:21 | 65.49878 | 38.73566 | 18541 ft | 274 kts | 156° |
| 2026-04-26 17:22 | 65.48256 | 38.75970 | 18293 ft | 274 kts | 156° |
| 2026-04-26 17:22 | 65.46653 | 38.78329 | 18046 ft | 273 kts | 156° |
| 2026-04-26 17:22 | 65.45052 | 38.80683 | 17795 ft | 266 kts | 156° |
| 2026-04-26 17:22 | 65.43489 | 38.82986 | 17542 ft | 261 kts | 156° |
| 2026-04-26 17:23 | 65.41950 | 38.85242 | 17292 ft | 257 kts | 156° |
| 2026-04-26 17:23 | 65.40427 | 38.87453 | 17042 ft | 255 kts | 155° |
| 2026-04-26 17:23 | 65.38912 | 38.89628 | 16791 ft | 253 kts | 156° |
| 2026-04-26 17:23 | 65.37404 | 38.91773 | 16541 ft | 251 kts | 156° |
| 2026-04-26 17:24 | 65.35901 | 38.93895 | 16290 ft | 250 kts | 155° |
| 2026-04-26 17:24 | 65.34420 | 38.95962 | 16044 ft | 249 kts | 156° |
| 2026-04-26 17:24 | 65.32921 | 38.98020 | 15793 ft | 248 kts | 156° |
| 2026-04-26 17:24 | 65.31425 | 39.00055 | 15543 ft | 247 kts | 156° |
| 2026-04-26 17:25 | 65.29931 | 39.02076 | 15293 ft | 246 kts | 156° |
| 2026-04-26 17:25 | 65.28439 | 39.04077 | 15043 ft | 246 kts | 156° |
| 2026-04-26 17:25 | 65.26946 | 39.06054 | 14794 ft | 245 kts | 156° |
| 2026-04-26 17:25 | 65.25454 | 39.08014 | 14542 ft | 244 kts | 156° |
| 2026-04-26 17:26 | 65.23983 | 39.09922 | 14295 ft | 244 kts | 156° |
| 2026-04-26 17:26 | 65.22493 | 39.11832 | 14045 ft | 243 kts | 156° |
| 2026-04-26 17:26 | 65.21003 | 39.13720 | 13795 ft | 242 kts | 156° |
| 2026-04-26 17:26 | 65.19514 | 39.15589 | 13545 ft | 242 kts | 156° |
| 2026-04-26 17:27 | 65.18025 | 39.17444 | 13293 ft | 241 kts | 156° |
| 2026-04-26 17:27 | 65.16539 | 39.19279 | 13038 ft | 240 kts | 156° |
| 2026-04-26 17:27 | 65.15052 | 39.21092 | 12794 ft | 240 kts | 156° |
| 2026-04-26 17:27 | 65.13568 | 39.22883 | 12544 ft | 239 kts | 156° |
| 2026-04-26 17:28 | 65.12103 | 39.24630 | 12297 ft | 239 kts | 156° |
| 2026-04-26 17:28 | 65.10619 | 39.26385 | 12042 ft | 238 kts | 156° |
| 2026-04-26 17:28 | 65.09136 | 39.28122 | 11797 ft | 237 kts | 156° |
| 2026-04-26 17:28 | 65.07655 | 39.29841 | 11546 ft | 237 kts | 156° |
| 2026-04-26 17:29 | 65.06175 | 39.31535 | 11296 ft | 236 kts | 156° |
| 2026-04-26 17:29 | 65.05194 | 39.32649 | 11131 ft | 236 kts | 156° |
| 2026-04-26 17:29 | 65.03211 | 39.34870 | 10796 ft | 235 kts | 156° |
| 2026-04-26 17:29 | 65.01727 | 39.36508 | 10545 ft | 235 kts | 156° |
| 2026-04-26 17:30 | 65.00268 | 39.38099 | 10325 ft | 233 kts | 156° |
| 2026-04-26 17:30 | 64.98800 | 39.39683 | 10124 ft | 231 kts | 156° |
| 2026-04-26 17:30 | 64.97338 | 39.41245 | 9924 ft | 229 kts | 156° |
| 2026-04-26 17:30 | 64.95897 | 39.42768 | 9723 ft | 225 kts | 156° |
| 2026-04-26 17:31 | 64.94475 | 39.44251 | 9518 ft | 222 kts | 156° |
| 2026-04-26 17:31 | 64.93065 | 39.45707 | 9321 ft | 220 kts | 156° |
| 2026-04-26 17:31 | 64.91664 | 39.47140 | 9123 ft | 219 kts | 156° |
| 2026-04-26 17:31 | 64.90285 | 39.48535 | 8923 ft | 218 kts | 156° |
| 2026-04-26 17:32 | 64.88892 | 39.49931 | 8721 ft | 217 kts | 156° |
| 2026-04-26 17:32 | 64.87503 | 39.51321 | 8522 ft | 217 kts | 156° |
| 2026-04-26 17:32 | 64.86120 | 39.52703 | 8325 ft | 215 kts | 156° |
| 2026-04-26 17:32 | 64.84742 | 39.54072 | 8122 ft | 214 kts | 156° |
| 2026-04-26 17:33 | 64.83392 | 39.55412 | 7924 ft | 206 kts | 156° |
| 2026-04-26 17:33 | 64.82092 | 39.56702 | 7717 ft | 200 kts | 156° |
| 2026-04-26 17:33 | 64.80844 | 39.57943 | 7506 ft | 195 kts | 156° |
| 2026-04-26 17:34 | 64.78390 | 39.60375 | 7117 ft | 189 kts | 155° |
| 2026-04-26 17:34 | 64.77187 | 39.61556 | 6926 ft | 186 kts | 156° |
| 2026-04-26 17:34 | 64.75998 | 39.62718 | 6713 ft | 184 kts | 156° |
| 2026-04-26 17:34 | 64.74817 | 39.63873 | 6514 ft | 183 kts | 156° |
| 2026-04-26 17:35 | 64.73649 | 39.65015 | 6314 ft | 181 kts | 156° |
| 2026-04-26 17:35 | 64.72500 | 39.66136 | 6113 ft | 176 kts | 155° |
| 2026-04-26 17:35 | 64.71477 | 39.67560 | 5909 ft | 168 kts | 135° |
| 2026-04-26 17:35 | 64.70809 | 39.69701 | 5711 ft | 160 kts | 121° |
| 2026-04-26 17:36 | 64.70251 | 39.71871 | 5512 ft | 156 kts | 121° |
| 2026-04-26 17:36 | 64.69697 | 39.74028 | 5310 ft | 154 kts | 121° |
| 2026-04-26 17:36 | 64.69147 | 39.76161 | 5109 ft | 152 kts | 121° |
| 2026-04-26 17:36 | 64.68603 | 39.78270 | 4903 ft | 149 kts | 121° |
| 2026-04-26 17:37 | 64.68061 | 39.80349 | 4708 ft | 150 kts | 121° |
| 2026-04-26 17:37 | 64.67517 | 39.82426 | 4509 ft | 150 kts | 121° |
| 2026-04-26 17:37 | 64.66968 | 39.84508 | 4309 ft | 151 kts | 120° |
| 2026-04-26 17:38 | 64.65823 | 39.88531 | 3910 ft | 150 kts | 124° |
| 2026-04-26 17:38 | 64.65225 | 39.90521 | 3711 ft | 150 kts | 124° |
| 2026-04-26 17:38 | 64.64626 | 39.92507 | 3511 ft | 150 kts | 124° |
| 2026-04-26 17:38 | 64.64100 | 39.94561 | 3314 ft | 143 kts | 115° |
| 2026-04-26 17:39 | 64.63770 | 39.96572 | 3113 ft | 126 kts | 99° |
| 2026-04-26 17:39 | 64.63628 | 39.98523 | 2909 ft | 120 kts | 98° |
| 2026-04-26 17:39 | 64.63512 | 40.00423 | 2716 ft | 116 kts | 97° |
| 2026-04-26 17:39 | 64.63411 | 40.02268 | 2510 ft | 116 kts | 97° |
| 2026-04-26 17:40 | 64.63309 | 40.04137 | 2309 ft | 116 kts | 97° |
| 2026-04-26 17:40 | 64.63246 | 40.05401 | 2170 ft | 116 kts | 96° |
| 2026-04-26 17:40 | 64.63127 | 40.07855 | 2008 ft | 109 kts | 96° |
| 2026-04-26 17:40 | 64.63045 | 40.09636 | 2011 ft | 114 kts | 96° |
| 2026-04-26 17:41 | 64.62948 | 40.11534 | 2013 ft | 121 kts | 96° |
| 2026-04-26 17:41 | 64.62853 | 40.13525 | 2014 ft | 126 kts | 96° |
| 2026-04-26 17:41 | 64.62754 | 40.15581 | 2014 ft | 129 kts | 96° |
| 2026-04-26 17:41 | 64.62652 | 40.17688 | 2013 ft | 132 kts | 96° |
| 2026-04-26 17:42 | 64.62550 | 40.19799 | 2014 ft | 133 kts | 96° |
| 2026-04-26 17:42 | 64.62443 | 40.21954 | 2013 ft | 134 kts | 96° |
| 2026-04-26 17:42 | 64.62340 | 40.24115 | 2014 ft | 134 kts | 96° |
| 2026-04-26 17:42 | 64.62233 | 40.26282 | 2014 ft | 134 kts | 96° |
| 2026-04-26 17:43 | 64.62126 | 40.28446 | 2014 ft | 134 kts | 96° |
| 2026-04-26 17:43 | 64.62019 | 40.30607 | 2014 ft | 134 kts | 96° |
| 2026-04-26 17:43 | 64.61915 | 40.32773 | 2014 ft | 134 kts | 96° |
| 2026-04-26 17:43 | 64.61812 | 40.34904 | 2011 ft | 134 kts | 96° |
| 2026-04-26 17:44 | 64.61707 | 40.37044 | 2011 ft | 131 kts | 96° |
| 2026-04-26 17:44 | 64.61607 | 40.39069 | 2005 ft | 121 kts | 95° |
| 2026-04-26 17:44 | 64.61517 | 40.40980 | 2001 ft | 117 kts | 95° |
| 2026-04-26 17:44 | 64.61427 | 40.42840 | 2000 ft | 115 kts | 95° |
| 2026-04-26 17:45 | 64.61338 | 40.44680 | 2000 ft | 114 kts | 95° |
| 2026-04-26 17:45 | 64.61250 | 40.46504 | 1959 ft | 113 kts | 96° |
| 2026-04-26 17:45 | 64.61160 | 40.48325 | 1817 ft | 115 kts | 95° |
| 2026-04-26 17:45 | 64.61069 | 40.50156 | 1666 ft | 112 kts | 95° |
| 2026-04-26 17:46 | 64.60983 | 40.51932 | 1518 ft | 107 kts | 95° |
| 2026-04-26 17:46 | 64.60900 | 40.53605 | 1380 ft | 100 kts | 95° |
| 2026-04-26 17:46 | 64.60830 | 40.55091 | 1257 ft | 86 kts | 94° |
| 2026-04-26 17:46 | 64.60766 | 40.56425 | 1147 ft | 81 kts | 94° |
| 2026-04-26 17:47 | 64.60706 | 40.57712 | 1042 ft | 80 kts | 94° |
| 2026-04-26 17:47 | 64.60665 | 40.58565 | 973 ft | 80 kts | 94° |
| 2026-04-26 17:47 | 64.60581 | 40.60284 | 830 ft | 81 kts | 94° |
| 2026-04-26 17:47 | 64.60519 | 40.61582 | 723 ft | 80 kts | 94° |
| 2026-04-26 17:48 | 64.60457 | 40.62876 | 621 ft | 80 kts | 93° |
| 2026-04-26 17:48 | 64.60400 | 40.64159 | 520 ft | 80 kts | 94° |
| 2026-04-26 17:48 | 64.60331 | 40.65446 | 413 ft | 80 kts | 95° |
| 2026-04-26 17:48 | 64.60267 | 40.66751 | 290 ft | 82 kts | 94° |
| 2026-04-26 17:49 | 64.60201 | 40.68069 | 172 ft | 82 kts | 94° |
| 2026-04-26 17:49 | 64.60142 | 40.69375 | 68 ft | 79 kts | 94° |
| 2026-04-26 17:49 | 64.60091 | 40.70571 | 42 ft | 71 kts | 95° |
| 2026-04-26 17:49 | 64.60054 | 40.71325 | 47 ft | 9 kts | 92° |
| 2026-04-26 17:50 | 64.59978 | 40.71332 | 46 ft | 16 kts | 188° |
| 2026-04-26 17:50 | 64.59895 | 40.71309 | 45 ft | 9 kts | 186° |
| 2026-04-26 17:50 | 64.59878 | 40.71305 | 45 ft | 0 kts | 186° |